Time;durP1;ratioP1;P1;durP2;ratioP2;P2;SDS_P1;SDS_P2;PMS_P1;PMS_P2;Temp;Humidity;BMP_temperature;BMP_pressure;BME280_temperature;BME280_humidity;BME280_pressure;Samples;Min_cycle;Max_cycle;Signal;HPM_P1;HPM_P2
2023/05/06 00:06:12;;;;;;;6.00;2.80;;;;;;;6.90;64.71;99973.59;436753;1254;138986;-63
2023/05/06 00:16:18;;;;;;;5.80;3.20;;;;;;;6.84;65.02;99976.97;436679;1254;139544;-64
2023/05/06 00:26:23;;;;;;;5.80;2.90;;;;;;;6.78;65.11;99984.20;436982;1254;140695;-64
2023/05/06 00:36:30;;;;;;;4.20;3.00;;;;;;;6.75;65.39;99977.55;436622;1251;139276;-64
2023/05/06 00:46:36;;;;;;;4.80;2.80;;;;;;;6.75;65.14;99974.92;436634;1254;140416;-64
2023/05/06 00:56:42;;;;;;;4.40;2.40;;;;;;;6.75;65.29;99971.80;436606;1251;140255;-64
2023/05/06 01:06:55;;;;;;;3.90;3.00;;;;;;;6.74;65.27;99970.09;436842;1250;139315;-64
2023/05/06 01:17:05;;;;;;;5.70;2.80;;;;;;;6.75;65.06;99955.60;436427;1251;140091;-64
2023/05/06 01:27:13;;;;;;;3.50;2.50;;;;;;;6.76;65.63;99944.95;436387;1254;139237;-63
2023/05/06 01:37:23;;;;;;;2.60;2.20;;;;;;;6.73;65.63;99945.23;436723;1252;141056;-64
2023/05/06 01:47:28;;;;;;;6.80;2.80;;;;;;;6.70;65.93;99942.76;436706;1254;138711;-65
2023/05/06 01:57:34;;;;;;;3.30;2.80;;;;;;;6.65;65.94;99935.33;436722;1251;141337;-63
2023/05/06 02:07:40;;;;;;;3.10;2.80;;;;;;;6.60;66.50;99943.38;437296;1251;139069;-64
2023/05/06 02:17:46;;;;;;;4.10;3.40;;;;;;;6.60;66.35;99948.76;436464;1251;138894;-63
2023/05/06 02:27:51;;;;;;;3.00;2.30;;;;;;;6.64;66.27;99943.20;436387;1251;139439;-63
2023/05/06 02:37:57;;;;;;;5.60;2.30;;;;;;;6.69;66.13;99940.56;436562;1251;140212;-62
2023/05/06 02:48:03;;;;;;;5.50;2.90;;;;;;;6.73;66.18;99933.79;436671;1251;138919;-63
2023/05/06 02:58:09;;;;;;;7.30;2.80;;;;;;;6.79;66.15;99932.46;436668;1251;140166;-64
2023/05/06 03:08:15;;;;;;;2.50;2.30;;;;;;;6.87;65.94;99923.09;436735;1251;138890;-63
2023/05/06 03:18:21;;;;;;;2.30;2.10;;;;;;;6.91;65.82;99907.61;437040;1254;139059;-62
2023/05/06 03:28:27;;;;;;;6.50;2.60;;;;;;;6.92;65.87;99892.22;436837;1254;139326;-63
2023/05/06 03:38:32;;;;;;;4.60;2.50;;;;;;;6.96;65.80;99890.15;436930;1250;139168;-62
2023/05/06 03:48:38;;;;;;;4.60;2.00;;;;;;;7.04;65.60;99892.42;436918;1251;139400;-64
2023/05/06 03:58:44;;;;;;;5.40;2.00;;;;;;;7.13;65.34;99905.92;436409;1250;139682;-64
2023/05/06 04:08:49;;;;;;;7.50;2.80;;;;;;;7.24;64.92;99892.58;436359;1254;139985;-62
2023/05/06 04:18:56;;;;;;;2.70;1.90;;;;;;;7.52;64.31;99889.89;436697;1254;140980;-64
2023/05/06 04:29:02;;;;;;;3.40;2.40;;;;;;;7.93;63.38;99890.44;436561;1251;140125;-63
2023/05/06 04:39:09;;;;;;;4.30;1.90;;;;;;;8.13;62.43;99893.63;436462;1251;140906;-63
2023/05/06 04:49:15;;;;;;;3.50;2.10;;;;;;;8.11;62.25;99893.04;436557;1251;138635;-64
2023/05/06 04:59:20;;;;;;;3.30;2.00;;;;;;;8.16;61.94;99878.84;436499;1251;139416;-64
2023/05/06 05:09:26;;;;;;;2.40;1.70;;;;;;;8.17;61.72;99869.41;436463;1250;140507;-64
2023/05/06 05:19:32;;;;;;;6.40;2.70;;;;;;;8.26;61.56;99869.65;436723;1254;139265;-63
2023/05/06 05:29:38;;;;;;;2.00;1.80;;;;;;;8.41;61.22;99861.77;436132;1251;139874;-64
2023/05/06 05:39:43;;;;;;;3.10;2.30;;;;;;;8.75;60.42;99864.58;436443;1253;139294;-63
2023/05/06 05:49:49;;;;;;;3.70;2.00;;;;;;;8.80;59.93;99853.02;436354;1250;141186;-63
2023/05/06 05:59:54;;;;;;;4.80;2.50;;;;;;;8.77;59.75;99842.88;436144;1254;139654;-64
2023/05/06 06:10:00;;;;;;;7.30;2.00;;;;;;;9.20;59.20;99832.69;436364;1250;139512;-63
2023/05/06 06:20:08;;;;;;;4.40;1.90;;;;;;;9.91;57.54;99834.57;436186;1250;139485;-64
2023/05/06 06:30:14;;;;;;;3.50;2.30;;;;;;;10.33;56.57;99822.86;436337;1251;139762;-63
2023/05/06 06:40:21;;;;;;;2.90;1.60;;;;;;;10.95;55.03;99821.84;435856;1254;139833;-63
2023/05/06 06:50:27;;;;;;;2.80;2.20;;;;;;;10.94;54.31;99825.55;436046;1251;138458;-63
2023/05/06 07:00:33;;;;;;;2.80;2.10;;;;;;;10.30;54.72;99827.61;436269;1251;140157;-63
2023/05/06 07:10:38;;;;;;;3.70;2.20;;;;;;;10.02;55.20;99827.14;436166;1251;140835;-64
2023/05/06 07:20:44;;;;;;;3.50;1.80;;;;;;;9.99;55.79;99817.88;436095;1250;158093;-63
2023/05/06 07:30:51;;;;;;;5.00;2.60;;;;;;;9.88;55.90;99811.49;436425;1250;139422;-63
2023/05/06 07:40:57;;;;;;;4.90;2.30;;;;;;;9.86;56.11;99814.03;436154;1254;138670;-63
2023/05/06 07:51:03;;;;;;;7.50;2.30;;;;;;;9.83;56.17;99815.42;436157;1251;138269;-63
2023/05/06 08:01:08;;;;;;;3.50;2.10;;;;;;;9.74;56.19;99813.15;437311;1251;138132;-64
2023/05/06 08:11:14;;;;;;;6.60;2.70;;;;;;;9.66;56.26;99819.74;436213;1251;139606;-63
2023/05/06 08:21:23;;;;;;;5.10;1.90;;;;;;;9.68;56.45;99825.22;436284;1254;139608;-65
2023/05/06 08:31:29;;;;;;;4.00;2.20;;;;;;;9.77;56.12;99823.13;436674;1250;138874;-66
2023/05/06 08:41:38;;;;;;;4.70;2.90;;;;;;;9.61;56.63;99808.82;436951;1250;139469;-63
2023/05/06 08:51:44;;;;;;;3.30;1.90;;;;;;;9.61;56.61;99802.52;436730;1254;138587;-64
2023/05/06 09:01:50;;;;;;;3.70;2.20;;;;;;;9.75;56.45;99804.72;436786;1251;138589;-64
2023/05/06 09:11:56;;;;;;;3.60;2.30;;;;;;;9.85;56.33;99798.36;436442;1254;138917;-64
2023/05/06 09:22:03;;;;;;;5.10;2.70;;;;;;;9.92;56.20;99786.44;436502;1251;138736;-66
2023/05/06 09:32:10;;;;;;;4.00;2.40;;;;;;;9.96;55.93;99783.94;437232;1250;138324;-64
2023/05/06 09:42:17;;;;;;;5.90;2.40;;;;;;;9.96;56.08;99768.52;437036;1251;140052;-63
2023/05/06 09:52:23;;;;;;;6.90;2.60;;;;;;;9.86;56.13;99748.11;436741;1251;139792;-62
2023/05/06 10:02:30;;;;;;;4.30;2.40;;;;;;;9.80;56.14;99753.03;436655;1254;138735;-61
2023/05/06 10:12:36;;;;;;;5.50;3.10;;;;;;;9.83;56.04;99752.70;436405;1254;138400;-63
2023/05/06 10:22:52;;;;;;;7.70;3.40;;;;;;;10.01;56.08;99742.73;436421;1251;138658;-63
2023/05/06 10:32:59;;;;;;;6.30;3.30;;;;;;;10.36;55.31;99746.42;436856;1250;139000;-63
2023/05/06 10:43:26;;;;;;;5.40;4.80;;;;;;;10.64;54.74;99748.95;437791;1251;139501;-63
2023/05/06 10:54:04;;;;;;;16.10;4.10;;;;;;;11.03;53.94;99746.39;435790;1254;139905;-64
2023/05/06 11:04:11;;;;;;;4.70;2.00;;;;;;;10.98;53.95;99738.81;445762;1250;139772;-64
2023/05/06 11:14:27;;;;;;;4.00;2.50;;;;;;;10.85;54.49;99727.67;436795;1250;139461;-63
2023/05/06 11:24:40;;;;;;;6.30;2.60;;;;;;;10.71;55.19;99710.52;436795;1251;139497;-64
2023/05/06 11:34:46;;;;;;;3.60;2.20;;;;;;;10.40;56.52;99722.18;437045;1250;139536;-63
2023/05/06 11:44:53;;;;;;;3.40;2.50;;;;;;;10.27;57.35;99725.39;436472;1250;139732;-64
2023/05/06 11:54:58;;;;;;;3.60;2.60;;;;;;;10.20;57.96;99728.64;437030;1251;139774;-64
2023/05/06 12:05:05;;;;;;;4.50;2.60;;;;;;;10.00;59.39;99714.10;436530;1251;139225;-63
2023/05/06 12:15:13;;;;;;;7.70;3.10;;;;;;;9.76;60.82;99715.15;436573;1251;140257;-64
2023/05/06 12:25:19;;;;;;;5.00;3.20;;;;;;;9.49;63.36;99722.98;436847;1254;139005;-69
2023/05/06 12:35:29;;;;;;;5.50;3.80;;;;;;;8.88;67.07;99728.46;436993;1254;139318;-64
2023/05/06 12:45:37;;;;;;;7.90;3.70;;;;;;;8.61;68.46;99735.65;436905;1250;141027;-64
2023/05/06 12:55:45;;;;;;;6.60;3.60;;;;;;;8.59;69.07;99718.65;436757;1255;139789;-64
2023/05/06 13:05:50;;;;;;;4.60;3.60;;;;;;;8.54;70.59;99695.72;436696;1251;138890;-63
2023/05/06 13:15:57;;;;;;;5.00;4.10;;;;;;;8.47;71.70;99685.79;436884;1254;140351;-63
2023/05/06 13:26:04;;;;;;;10.60;4.70;;;;;;;8.23;73.44;99689.48;436976;1251;140518;-64
2023/05/06 13:36:11;;;;;;;5.40;4.80;;;;;;;8.14;74.09;99684.74;437090;1250;140076;-62
2023/05/06 13:46:16;;;;;;;8.70;5.30;;;;;;;7.91;74.97;99676.80;436511;1255;140479;-63
2023/05/06 13:56:22;;;;;;;7.90;4.70;;;;;;;7.78;74.97;99681.11;437206;1255;139467;-64
2023/05/06 14:06:28;;;;;;;6.70;4.50;;;;;;;7.72;76.43;99655.30;437350;1250;140452;-64
2023/05/06 14:16:34;;;;;;;4.40;4.00;;;;;;;7.76;76.65;99657.02;436972;1251;138856;-61
2023/05/06 14:26:40;;;;;;;7.20;3.70;;;;;;;7.52;77.23;99647.60;436889;1250;140294;-64
2023/05/06 14:36:46;;;;;;;6.00;4.60;;;;;;;7.34;78.88;99640.47;437394;1251;140218;-65
2023/05/06 14:46:52;;;;;;;7.30;5.10;;;;;;;7.11;78.79;99659.33;436608;1250;139935;-64
2023/05/06 14:57:00;;;;;;;8.30;4.40;;;;;;;6.84;83.01;99665.48;437274;1254;140566;-66
2023/05/06 15:07:06;;;;;;;7.80;5.00;;;;;;;6.64;85.87;99690.61;437351;1255;139227;-65
2023/05/06 15:17:12;;;;;;;8.10;4.30;;;;;;;6.38;88.02;99698.88;436635;1255;140491;-64
2023/05/06 15:27:17;;;;;;;12.10;5.30;;;;;;;6.23;91.95;99718.88;436466;1256;139655;-64
2023/05/06 15:37:23;;;;;;;5.50;4.10;;;;;;;6.19;92.65;99736.75;436732;1251;140832;-63
2023/05/06 15:47:29;;;;;;;5.40;4.70;;;;;;;6.14;92.31;99732.99;436471;1253;139959;-64
2023/05/06 15:57:35;;;;;;;5.30;4.80;;;;;;;6.19;92.51;99729.64;437098;1254;139444;-63
2023/05/06 16:07:41;;;;;;;6.90;5.80;;;;;;;6.12;95.09;99741.93;437045;1251;139345;-64
2023/05/06 16:17:46;;;;;;;11.90;6.20;;;;;;;6.02;98.83;99752.95;437050;1251;139081;-64
2023/05/06 16:27:52;;;;;;;5.70;4.80;;;;;;;6.02;97.51;99738.88;436849;1251;139208;-64
2023/05/06 16:37:58;;;;;;;8.30;5.30;;;;;;;6.00;96.09;99747.96;437104;1251;138755;-64
2023/05/06 16:48:03;;;;;;;6.50;5.70;;;;;;;5.95;96.19;99750.45;436533;1256;139339;-63
2023/05/06 16:58:10;;;;;;;6.80;6.00;;;;;;;5.86;96.28;99755.84;436802;1256;139256;-64
2023/05/06 17:08:15;;;;;;;5.10;4.60;;;;;;;5.79;96.36;99767.05;437032;1251;139316;-63
2023/05/06 17:18:21;;;;;;;7.10;5.50;;;;;;;5.74;96.37;99775.09;436902;1256;138638;-63
2023/05/06 17:28:27;;;;;;;7.10;5.60;;;;;;;5.71;96.99;99785.83;436957;1254;140325;-63
2023/05/06 17:38:32;;;;;;;6.60;4.60;;;;;;;5.68;97.76;99798.80;436721;1255;139330;-63
2023/05/06 17:48:38;;;;;;;6.00;5.20;;;;;;;5.65;98.43;99816.83;437198;1256;139291;-62
2023/05/06 17:58:44;;;;;;;7.50;5.00;;;;;;;5.60;99.01;99822.89;436989;1255;139809;-64
2023/05/06 18:08:50;;;;;;;5.80;5.30;;;;;;;5.61;99.50;99808.11;436963;1256;141073;-63
2023/05/06 18:18:55;;;;;;;6.30;5.10;;;;;;;5.61;99.86;99815.91;436760;1255;140240;-62
2023/05/06 18:29:02;;;;;;;5.00;4.60;;;;;;;5.63;99.86;99818.10;436512;1255;140499;-63
2023/05/06 18:39:08;;;;;;;6.60;5.40;;;;;;;5.63;99.95;99813.92;436587;1256;140957;-63
2023/05/06 18:49:13;;;;;;;7.30;5.90;;;;;;;5.63;100.00;99825.59;436802;1251;139561;-63
2023/05/06 18:59:20;;;;;;;7.40;4.80;;;;;;;5.61;100.00;99821.13;437023;1251;139636;-62
2023/05/06 19:09:25;;;;;;;5.20;4.70;;;;;;;5.62;100.00;99835.51;437104;1254;139534;-67
2023/05/06 19:19:31;;;;;;;6.00;4.60;;;;;;;5.63;100.00;99845.20;436868;1255;139022;-63
2023/05/06 19:29:37;;;;;;;5.10;4.30;;;;;;;5.64;100.00;99846.52;436839;1254;139961;-63
2023/05/06 19:39:43;;;;;;;5.50;4.80;;;;;;;5.62;100.00;99849.73;437321;1251;140573;-65
2023/05/06 19:49:50;;;;;;;7.20;4.70;;;;;;;5.59;100.00;99845.68;436886;1254;139781;-64
2023/05/06 19:59:55;;;;;;;6.60;4.20;;;;;;;5.55;100.00;99857.31;436795;1254;140486;-64
2023/05/06 20:10:01;;;;;;;5.10;4.40;;;;;;;5.51;100.00;99857.81;436665;1254;139372;-62
2023/05/06 20:20:10;;;;;;;7.70;4.20;;;;;;;5.47;100.00;99845.99;436811;1251;139378;-63
2023/05/06 20:30:16;;;;;;;4.00;3.60;;;;;;;5.43;100.00;99852.73;437116;1254;140316;-63
2023/05/06 20:40:22;;;;;;;4.80;3.50;;;;;;;5.40;100.00;99850.92;436741;1251;142297;-63
2023/05/06 20:50:28;;;;;;;5.40;3.00;;;;;;;5.37;100.00;99852.95;436946;1254;139954;-63
2023/05/06 21:00:34;;;;;;;3.80;3.40;;;;;;;5.36;100.00;99866.21;436647;1251;142055;-63
2023/05/06 21:10:40;;;;;;;2.90;2.40;;;;;;;5.32;100.00;99870.85;436910;1251;139447;-63
2023/05/06 21:20:45;;;;;;;2.80;2.60;;;;;;;5.30;100.00;99880.13;436922;1254;139418;-64
2023/05/06 21:30:51;;;;;;;3.70;3.20;;;;;;;5.28;100.00;99889.21;436962;1251;139293;-66
2023/05/06 21:40:57;;;;;;;4.70;3.10;;;;;;;5.26;100.00;99892.96;436419;1254;140314;-61
2023/05/06 21:51:05;;;;;;;3.40;2.30;;;;;;;5.22;100.00;99894.99;436426;1251;139854;-62
2023/05/06 22:01:11;;;;;;;4.40;2.80;;;;;;;5.19;99.98;99900.84;437238;1251;138857;-64
2023/05/06 22:11:17;;;;;;;4.30;2.70;;;;;;;5.11;100.00;99905.63;436749;1250;139076;-63
2023/05/06 22:21:23;;;;;;;3.30;2.90;;;;;;;5.07;100.00;99909.08;436951;1251;139389;-64
2023/05/06 22:31:28;;;;;;;3.10;2.50;;;;;;;5.03;100.00;99907.14;437106;1254;140063;-63
2023/05/06 22:41:34;;;;;;;4.10;3.70;;;;;;;5.01;100.00;99903.38;436641;1254;140243;-62
2023/05/06 22:51:40;;;;;;;2.70;2.50;;;;;;;5.00;99.97;99908.64;436894;1254;140814;-64
2023/05/06 23:01:46;;;;;;;4.70;3.40;;;;;;;4.98;100.00;99906.82;436715;1250;139290;-63
2023/05/06 23:11:52;;;;;;;5.00;3.80;;;;;;;4.97;99.99;99909.63;436817;1251;140058;-63
2023/05/06 23:21:57;;;;;;;3.50;3.20;;;;;;;4.96;100.00;99919.71;436984;1251;139008;-64
2023/05/06 23:32:03;;;;;;;5.90;3.80;;;;;;;4.95;100.00;99914.39;437188;1254;140936;-64
2023/05/06 23:42:09;;;;;;;3.80;3.40;;;;;;;4.92;99.89;99918.98;436856;1250;140805;-63
2023/05/06 23:52:15;;;;;;;7.00;3.80;;;;;;;4.90;99.78;99918.17;436594;1251;139344;-63
